sensor_id;sensor_type;location;lat;lon;timestamp;P1;durP1;ratioP1;P2;durP2;ratioP2
36243;SDS011;22284;49.956;19.816;2022-10-16T00:02:12;49.00;;;30.02;;
36243;SDS011;22284;49.956;19.816;2022-10-16T00:05:13;45.40;;;29.27;;
36243;SDS011;22284;49.956;19.816;2022-10-16T00:08:15;45.52;;;29.37;;
36243;SDS011;22284;49.956;19.816;2022-10-16T00:11:17;46.42;;;29.50;;
36243;SDS011;22284;49.956;19.816;2022-10-16T00:14:22;44.55;;;27.40;;
36243;SDS011;22284;49.956;19.816;2022-10-16T00:17:23;43.02;;;27.60;;
36243;SDS011;22284;49.956;19.816;2022-10-16T00:20:24;41.40;;;26.87;;
36243;SDS011;22284;49.956;19.816;2022-10-16T00:23:25;42.10;;;25.52;;
36243;SDS011;22284;49.956;19.816;2022-10-16T00:26:26;37.40;;;23.65;;
36243;SDS011;22284;49.956;19.816;2022-10-16T00:29:29;40.58;;;26.40;;
36243;SDS011;22284;49.956;19.816;2022-10-16T00:32:30;38.38;;;24.05;;
36243;SDS011;22284;49.956;19.816;2022-10-16T00:35:31;42.50;;;25.57;;
36243;SDS011;22284;49.956;19.816;2022-10-16T00:38:33;38.65;;;24.80;;
36243;SDS011;22284;49.956;19.816;2022-10-16T00:41:34;39.45;;;25.05;;
36243;SDS011;22284;49.956;19.816;2022-10-16T00:47:50;40.65;;;26.00;;
36243;SDS011;22284;49.956;19.816;2022-10-16T00:50:54;41.45;;;26.82;;
36243;SDS011;22284;49.956;19.816;2022-10-16T00:53:56;39.92;;;25.10;;
36243;SDS011;22284;49.956;19.816;2022-10-16T00:56:58;40.25;;;25.60;;
36243;SDS011;22284;49.956;19.816;2022-10-16T01:00:04;39.65;;;25.40;;
36243;SDS011;22284;49.956;19.816;2022-10-16T01:06:37;43.55;;;24.98;;
36243;SDS011;22284;49.956;19.816;2022-10-16T01:13:31;38.83;;;24.23;;
36243;SDS011;22284;49.956;19.816;2022-10-16T01:16:42;35.85;;;23.98;;
36243;SDS011;22284;49.956;19.816;2022-10-16T01:23:27;39.98;;;24.60;;
36243;SDS011;22284;49.956;19.816;2022-10-16T01:30:07;36.50;;;23.75;;
36243;SDS011;22284;49.956;19.816;2022-10-16T01:33:34;38.30;;;24.23;;
36243;SDS011;22284;49.956;19.816;2022-10-16T01:36:47;36.70;;;23.70;;
36243;SDS011;22284;49.956;19.816;2022-10-16T01:39:49;38.00;;;24.55;;
36243;SDS011;22284;49.956;19.816;2022-10-16T01:42:55;40.58;;;24.55;;
36243;SDS011;22284;49.956;19.816;2022-10-16T01:45:59;36.90;;;23.75;;
36243;SDS011;22284;49.956;19.816;2022-10-16T01:49:02;37.65;;;23.15;;
36243;SDS011;22284;49.956;19.816;2022-10-16T01:55:09;35.90;;;22.30;;
36243;SDS011;22284;49.956;19.816;2022-10-16T01:58:13;39.67;;;24.80;;
36243;SDS011;22284;49.956;19.816;2022-10-16T02:01:16;40.33;;;24.43;;
36243;SDS011;22284;49.956;19.816;2022-10-16T02:04:26;37.73;;;24.25;;
36243;SDS011;22284;49.956;19.816;2022-10-16T02:07:31;37.42;;;24.05;;
36243;SDS011;22284;49.956;19.816;2022-10-16T02:10:33;36.20;;;24.23;;
36243;SDS011;22284;49.956;19.816;2022-10-16T02:16:41;38.28;;;22.45;;
36243;SDS011;22284;49.956;19.816;2022-10-16T02:19:46;37.45;;;22.90;;
36243;SDS011;22284;49.956;19.816;2022-10-16T02:22:50;34.50;;;22.90;;
36243;SDS011;22284;49.956;19.816;2022-10-16T02:25:52;38.95;;;23.40;;
36243;SDS011;22284;49.956;19.816;2022-10-16T02:28:58;35.78;;;22.75;;
36243;SDS011;22284;49.956;19.816;2022-10-16T02:32:04;35.65;;;21.55;;
36243;SDS011;22284;49.956;19.816;2022-10-16T02:35:08;33.55;;;20.45;;
36243;SDS011;22284;49.956;19.816;2022-10-16T02:38:11;32.67;;;20.68;;
36243;SDS011;22284;49.956;19.816;2022-10-16T02:44:15;31.40;;;19.35;;
36243;SDS011;22284;49.956;19.816;2022-10-16T02:47:16;32.55;;;20.20;;
36243;SDS011;22284;49.956;19.816;2022-10-16T02:50:17;34.45;;;22.73;;
36243;SDS011;22284;49.956;19.816;2022-10-16T02:53:18;34.92;;;22.27;;
36243;SDS011;22284;49.956;19.816;2022-10-16T02:56:19;33.13;;;21.73;;
36243;SDS011;22284;49.956;19.816;2022-10-16T02:59:20;36.20;;;22.35;;
36243;SDS011;22284;49.956;19.816;2022-10-16T03:02:21;34.70;;;21.77;;
36243;SDS011;22284;49.956;19.816;2022-10-16T03:05:22;32.67;;;21.52;;
36243;SDS011;22284;49.956;19.816;2022-10-16T03:08:23;35.92;;;22.02;;
36243;SDS011;22284;49.956;19.816;2022-10-16T03:11:25;34.80;;;21.65;;
36243;SDS011;22284;49.956;19.816;2022-10-16T03:14:26;32.33;;;20.37;;
36243;SDS011;22284;49.956;19.816;2022-10-16T03:17:27;34.27;;;21.55;;
36243;SDS011;22284;49.956;19.816;2022-10-16T03:20:28;33.23;;;20.65;;
36243;SDS011;22284;49.956;19.816;2022-10-16T03:23:29;28.92;;;18.27;;
36243;SDS011;22284;49.956;19.816;2022-10-16T03:26:30;31.15;;;18.57;;
36243;SDS011;22284;49.956;19.816;2022-10-16T03:29:31;30.12;;;19.20;;
36243;SDS011;22284;49.956;19.816;2022-10-16T03:32:33;28.60;;;18.52;;
36243;SDS011;22284;49.956;19.816;2022-10-16T03:35:34;29.20;;;18.40;;
36243;SDS011;22284;49.956;19.816;2022-10-16T03:38:35;31.68;;;18.23;;
36243;SDS011;22284;49.956;19.816;2022-10-16T03:41:36;31.07;;;18.57;;
36243;SDS011;22284;49.956;19.816;2022-10-16T03:44:37;29.50;;;18.50;;
36243;SDS011;22284;49.956;19.816;2022-10-16T03:47:39;30.43;;;18.37;;
36243;SDS011;22284;49.956;19.816;2022-10-16T03:50:40;28.27;;;18.17;;
36243;SDS011;22284;49.956;19.816;2022-10-16T03:53:41;29.82;;;19.37;;
36243;SDS011;22284;49.956;19.816;2022-10-16T03:56:42;29.12;;;17.87;;
36243;SDS011;22284;49.956;19.816;2022-10-16T03:59:42;27.15;;;17.25;;
36243;SDS011;22284;49.956;19.816;2022-10-16T04:02:44;25.27;;;16.67;;
36243;SDS011;22284;49.956;19.816;2022-10-16T04:05:45;26.17;;;16.52;;
36243;SDS011;22284;49.956;19.816;2022-10-16T04:08:46;24.67;;;15.75;;
36243;SDS011;22284;49.956;19.816;2022-10-16T04:11:47;20.57;;;13.15;;
36243;SDS011;22284;49.956;19.816;2022-10-16T04:14:48;18.45;;;11.53;;
36243;SDS011;22284;49.956;19.816;2022-10-16T04:17:49;18.90;;;11.78;;
36243;SDS011;22284;49.956;19.816;2022-10-16T04:20:50;19.67;;;11.70;;
36243;SDS011;22284;49.956;19.816;2022-10-16T04:23:51;19.42;;;11.93;;
36243;SDS011;22284;49.956;19.816;2022-10-16T04:26:52;20.75;;;12.55;;
36243;SDS011;22284;49.956;19.816;2022-10-16T04:29:53;19.25;;;11.75;;
36243;SDS011;22284;49.956;19.816;2022-10-16T04:32:54;19.02;;;11.45;;
36243;SDS011;22284;49.956;19.816;2022-10-16T04:35:58;21.00;;;13.03;;
36243;SDS011;22284;49.956;19.816;2022-10-16T04:39:00;19.50;;;11.22;;
36243;SDS011;22284;49.956;19.816;2022-10-16T04:42:02;19.37;;;11.38;;
36243;SDS011;22284;49.956;19.816;2022-10-16T04:45:04;23.32;;;12.40;;
36243;SDS011;22284;49.956;19.816;2022-10-16T04:48:08;21.23;;;12.50;;
36243;SDS011;22284;49.956;19.816;2022-10-16T04:51:09;24.50;;;13.40;;
36243;SDS011;22284;49.956;19.816;2022-10-16T04:54:10;24.55;;;13.62;;
36243;SDS011;22284;49.956;19.816;2022-10-16T04:57:11;24.20;;;13.35;;
36243;SDS011;22284;49.956;19.816;2022-10-16T05:00:12;23.42;;;13.20;;
36243;SDS011;22284;49.956;19.816;2022-10-16T05:03:14;22.30;;;13.22;;
36243;SDS011;22284;49.956;19.816;2022-10-16T05:06:15;23.02;;;14.13;;
36243;SDS011;22284;49.956;19.816;2022-10-16T05:09:16;21.85;;;12.50;;
36243;SDS011;22284;49.956;19.816;2022-10-16T05:12:17;19.77;;;11.75;;
36243;SDS011;22284;49.956;19.816;2022-10-16T05:15:18;21.57;;;12.20;;
36243;SDS011;22284;49.956;19.816;2022-10-16T05:18:19;22.05;;;11.80;;
36243;SDS011;22284;49.956;19.816;2022-10-16T05:21:20;20.25;;;12.10;;
36243;SDS011;22284;49.956;19.816;2022-10-16T05:24:21;22.27;;;11.85;;
36243;SDS011;22284;49.956;19.816;2022-10-16T05:27:22;22.45;;;13.38;;
36243;SDS011;22284;49.956;19.816;2022-10-16T05:30:23;23.83;;;13.20;;
36243;SDS011;22284;49.956;19.816;2022-10-16T05:33:24;21.33;;;13.28;;
36243;SDS011;22284;49.956;19.816;2022-10-16T05:36:27;20.60;;;12.90;;
36243;SDS011;22284;49.956;19.816;2022-10-16T05:39:28;22.67;;;14.75;;
36243;SDS011;22284;49.956;19.816;2022-10-16T05:42:29;24.47;;;15.00;;
36243;SDS011;22284;49.956;19.816;2022-10-16T05:45:30;24.10;;;14.58;;
36243;SDS011;22284;49.956;19.816;2022-10-16T05:48:32;25.20;;;14.60;;
36243;SDS011;22284;49.956;19.816;2022-10-16T05:51:34;24.72;;;14.18;;
36243;SDS011;22284;49.956;19.816;2022-10-16T05:54:35;30.60;;;13.55;;
36243;SDS011;22284;49.956;19.816;2022-10-16T05:57:36;23.35;;;14.35;;
36243;SDS011;22284;49.956;19.816;2022-10-16T06:00:37;21.62;;;12.78;;
36243;SDS011;22284;49.956;19.816;2022-10-16T06:03:38;22.32;;;13.30;;
36243;SDS011;22284;49.956;19.816;2022-10-16T06:06:39;23.00;;;13.70;;
36243;SDS011;22284;49.956;19.816;2022-10-16T06:09:41;22.62;;;13.43;;
36243;SDS011;22284;49.956;19.816;2022-10-16T06:12:42;22.80;;;13.60;;
36243;SDS011;22284;49.956;19.816;2022-10-16T06:15:43;23.05;;;14.13;;
36243;SDS011;22284;49.956;19.816;2022-10-16T06:18:46;23.40;;;14.83;;
36243;SDS011;22284;49.956;19.816;2022-10-16T06:21:47;23.57;;;14.28;;
36243;SDS011;22284;49.956;19.816;2022-10-16T06:24:48;26.87;;;15.10;;
36243;SDS011;22284;49.956;19.816;2022-10-16T06:27:50;26.80;;;15.23;;
36243;SDS011;22284;49.956;19.816;2022-10-16T06:30:58;24.65;;;15.03;;
36243;SDS011;22284;49.956;19.816;2022-10-16T06:34:00;23.80;;;13.88;;
36243;SDS011;22284;49.956;19.816;2022-10-16T06:37:02;27.50;;;16.23;;
36243;SDS011;22284;49.956;19.816;2022-10-16T06:40:03;26.23;;;15.90;;
36243;SDS011;22284;49.956;19.816;2022-10-16T06:43:06;27.25;;;16.20;;
36243;SDS011;22284;49.956;19.816;2022-10-16T06:46:08;23.40;;;16.00;;
36243;SDS011;22284;49.956;19.816;2022-10-16T06:49:10;25.48;;;15.18;;
36243;SDS011;22284;49.956;19.816;2022-10-16T06:52:11;23.85;;;15.72;;
36243;SDS011;22284;49.956;19.816;2022-10-16T06:55:12;25.88;;;15.20;;
36243;SDS011;22284;49.956;19.816;2022-10-16T06:58:15;24.37;;;15.70;;
36243;SDS011;22284;49.956;19.816;2022-10-16T07:01:16;24.47;;;16.00;;
36243;SDS011;22284;49.956;19.816;2022-10-16T07:04:19;27.50;;;16.02;;
36243;SDS011;22284;49.956;19.816;2022-10-16T07:07:20;25.65;;;15.78;;
36243;SDS011;22284;49.956;19.816;2022-10-16T07:10:21;24.77;;;15.75;;
36243;SDS011;22284;49.956;19.816;2022-10-16T07:16:26;27.10;;;16.55;;
36243;SDS011;22284;49.956;19.816;2022-10-16T07:19:30;25.10;;;16.35;;
36243;SDS011;22284;49.956;19.816;2022-10-16T07:22:31;26.33;;;17.12;;
36243;SDS011;22284;49.956;19.816;2022-10-16T07:25:32;27.10;;;16.12;;
36243;SDS011;22284;49.956;19.816;2022-10-16T07:28:33;26.93;;;16.42;;
36243;SDS011;22284;49.956;19.816;2022-10-16T07:31:35;28.30;;;17.37;;
36243;SDS011;22284;49.956;19.816;2022-10-16T07:34:36;29.02;;;18.98;;
36243;SDS011;22284;49.956;19.816;2022-10-16T07:37:37;28.00;;;17.50;;
36243;SDS011;22284;49.956;19.816;2022-10-16T07:40:38;30.45;;;19.35;;
36243;SDS011;22284;49.956;19.816;2022-10-16T07:43:40;31.15;;;20.72;;
36243;SDS011;22284;49.956;19.816;2022-10-16T07:46:47;31.05;;;19.98;;
36243;SDS011;22284;49.956;19.816;2022-10-16T07:49:48;31.45;;;20.00;;
36243;SDS011;22284;49.956;19.816;2022-10-16T07:52:49;32.25;;;20.62;;
36243;SDS011;22284;49.956;19.816;2022-10-16T07:55:50;30.65;;;20.23;;
36243;SDS011;22284;49.956;19.816;2022-10-16T07:58:51;32.05;;;19.17;;
36243;SDS011;22284;49.956;19.816;2022-10-16T08:01:53;28.42;;;17.62;;
36243;SDS011;22284;49.956;19.816;2022-10-16T08:04:54;29.87;;;18.92;;
36243;SDS011;22284;49.956;19.816;2022-10-16T08:07:55;29.48;;;17.77;;
36243;SDS011;22284;49.956;19.816;2022-10-16T08:10:56;30.32;;;17.37;;
36243;SDS011;22284;49.956;19.816;2022-10-16T08:13:58;25.00;;;16.05;;
36243;SDS011;22284;49.956;19.816;2022-10-16T08:16:59;23.05;;;14.25;;
36243;SDS011;22284;49.956;19.816;2022-10-16T08:20:02;22.27;;;14.13;;
36243;SDS011;22284;49.956;19.816;2022-10-16T08:23:04;25.00;;;14.40;;
36243;SDS011;22284;49.956;19.816;2022-10-16T08:26:07;23.77;;;14.05;;
36243;SDS011;22284;49.956;19.816;2022-10-16T08:29:09;21.77;;;12.50;;
36243;SDS011;22284;49.956;19.816;2022-10-16T08:32:10;22.48;;;13.08;;
36243;SDS011;22284;49.956;19.816;2022-10-16T08:35:11;22.42;;;12.05;;
36243;SDS011;22284;49.956;19.816;2022-10-16T08:38:13;19.05;;;11.38;;
36243;SDS011;22284;49.956;19.816;2022-10-16T08:41:20;21.50;;;11.60;;
36243;SDS011;22284;49.956;19.816;2022-10-16T08:44:42;18.05;;;10.70;;
36243;SDS011;22284;49.956;19.816;2022-10-16T08:51:26;17.42;;;10.58;;
36243;SDS011;22284;49.956;19.816;2022-10-16T08:54:45;17.85;;;10.08;;
36243;SDS011;22284;49.956;19.816;2022-10-16T08:57:44;16.17;;;10.08;;
36243;SDS011;22284;49.956;19.816;2022-10-16T09:00:59;16.32;;;9.63;;
36243;SDS011;22284;49.956;19.816;2022-10-16T09:24:17;15.10;;;9.23;;
36243;SDS011;22284;49.956;19.816;2022-10-16T09:27:25;14.65;;;8.63;;
36243;SDS011;22284;49.956;19.816;2022-10-16T09:30:27;18.70;;;9.50;;
36243;SDS011;22284;49.956;19.816;2022-10-16T09:33:33;16.67;;;9.55;;
36243;SDS011;22284;49.956;19.816;2022-10-16T09:36:42;15.88;;;9.73;;
36243;SDS011;22284;49.956;19.816;2022-10-16T09:39:46;18.23;;;10.05;;
36243;SDS011;22284;49.956;19.816;2022-10-16T09:42:53;17.48;;;10.03;;
36243;SDS011;22284;49.956;19.816;2022-10-16T09:49:35;12.85;;;8.33;;
36243;SDS011;22284;49.956;19.816;2022-10-16T09:52:37;17.07;;;9.43;;
36243;SDS011;22284;49.956;19.816;2022-10-16T09:55:48;15.43;;;8.88;;
36243;SDS011;22284;49.956;19.816;2022-10-16T09:58:51;12.88;;;7.83;;
36243;SDS011;22284;49.956;19.816;2022-10-16T10:01:55;15.93;;;7.95;;
36243;SDS011;22284;49.956;19.816;2022-10-16T10:04:57;12.93;;;7.40;;
36243;SDS011;22284;49.956;19.816;2022-10-16T10:07:59;11.88;;;7.47;;
36243;SDS011;22284;49.956;19.816;2022-10-16T10:11:05;16.42;;;7.40;;
36243;SDS011;22284;49.956;19.816;2022-10-16T10:14:17;12.60;;;7.15;;
36243;SDS011;22284;49.956;19.816;2022-10-16T10:17:44;12.45;;;7.28;;
36243;SDS011;22284;49.956;19.816;2022-10-16T10:20:57;8.98;;;6.17;;
36243;SDS011;22284;49.956;19.816;2022-10-16T10:24:01;8.88;;;5.80;;
36243;SDS011;22284;49.956;19.816;2022-10-16T10:27:05;8.53;;;5.87;;
36243;SDS011;22284;49.956;19.816;2022-10-16T10:30:18;11.50;;;6.12;;
36243;SDS011;22284;49.956;19.816;2022-10-16T10:37:08;8.40;;;5.30;;
36243;SDS011;22284;49.956;19.816;2022-10-16T10:40:28;8.75;;;5.62;;
36243;SDS011;22284;49.956;19.816;2022-10-16T10:44:07;9.40;;;6.05;;
36243;SDS011;22284;49.956;19.816;2022-10-16T10:47:31;10.15;;;5.97;;
36243;SDS011;22284;49.956;19.816;2022-10-16T10:51:13;7.42;;;5.53;;
36243;SDS011;22284;49.956;19.816;2022-10-16T10:54:20;10.88;;;5.87;;
36243;SDS011;22284;49.956;19.816;2022-10-16T11:01:12;9.55;;;5.50;;
36243;SDS011;22284;49.956;19.816;2022-10-16T11:04:34;8.95;;;5.55;;
36243;SDS011;22284;49.956;19.816;2022-10-16T11:07:49;7.87;;;5.62;;
36243;SDS011;22284;49.956;19.816;2022-10-16T11:11:26;7.33;;;5.28;;
36243;SDS011;22284;49.956;19.816;2022-10-16T11:14:36;7.87;;;5.17;;
36243;SDS011;22284;49.956;19.816;2022-10-16T11:18:06;12.07;;;6.15;;
36243;SDS011;22284;49.956;19.816;2022-10-16T11:21:20;8.63;;;5.67;;
36243;SDS011;22284;49.956;19.816;2022-10-16T11:24:25;10.35;;;5.80;;
36243;SDS011;22284;49.956;19.816;2022-10-16T11:27:36;11.60;;;7.10;;
36243;SDS011;22284;49.956;19.816;2022-10-16T11:30:46;12.63;;;7.28;;
36243;SDS011;22284;49.956;19.816;2022-10-16T11:34:07;12.30;;;6.50;;
36243;SDS011;22284;49.956;19.816;2022-10-16T11:37:46;10.32;;;6.30;;
36243;SDS011;22284;49.956;19.816;2022-10-16T11:40:51;9.63;;;6.30;;
36243;SDS011;22284;49.956;19.816;2022-10-16T11:44:00;12.20;;;7.05;;
36243;SDS011;22284;49.956;19.816;2022-10-16T11:50:57;13.78;;;6.70;;
36243;SDS011;22284;49.956;19.816;2022-10-16T11:57:45;11.97;;;7.25;;
36243;SDS011;22284;49.956;19.816;2022-10-16T12:04:26;11.65;;;6.67;;
36243;SDS011;22284;49.956;19.816;2022-10-16T12:07:47;11.63;;;6.28;;
36243;SDS011;22284;49.956;19.816;2022-10-16T12:11:22;11.20;;;6.80;;
36243;SDS011;22284;49.956;19.816;2022-10-16T12:14:33;9.95;;;6.67;;
36243;SDS011;22284;49.956;19.816;2022-10-16T12:17:38;11.00;;;6.00;;
36243;SDS011;22284;49.956;19.816;2022-10-16T12:20:40;11.53;;;6.67;;
36243;SDS011;22284;49.956;19.816;2022-10-16T12:23:50;9.63;;;6.33;;
36243;SDS011;22284;49.956;19.816;2022-10-16T12:26:54;9.53;;;6.10;;
36243;SDS011;22284;49.956;19.816;2022-10-16T12:29:57;14.03;;;6.37;;
36243;SDS011;22284;49.956;19.816;2022-10-16T12:33:02;10.20;;;5.78;;
36243;SDS011;22284;49.956;19.816;2022-10-16T12:36:09;7.37;;;4.80;;
36243;SDS011;22284;49.956;19.816;2022-10-16T12:39:22;7.28;;;4.78;;
36243;SDS011;22284;49.956;19.816;2022-10-16T12:45:33;7.45;;;4.83;;
36243;SDS011;22284;49.956;19.816;2022-10-16T12:48:35;7.78;;;5.40;;
36243;SDS011;22284;49.956;19.816;2022-10-16T12:51:39;7.45;;;5.00;;
36243;SDS011;22284;49.956;19.816;2022-10-16T12:54:41;8.08;;;5.17;;
36243;SDS011;22284;49.956;19.816;2022-10-16T13:05:21;6.97;;;5.05;;
36243;SDS011;22284;49.956;19.816;2022-10-16T13:09:07;8.30;;;5.22;;
36243;SDS011;22284;49.956;19.816;2022-10-16T13:12:40;9.30;;;4.83;;
36243;SDS011;22284;49.956;19.816;2022-10-16T13:15:58;6.65;;;4.67;;
36243;SDS011;22284;49.956;19.816;2022-10-16T13:19:24;7.30;;;4.85;;
36243;SDS011;22284;49.956;19.816;2022-10-16T13:22:47;8.50;;;4.80;;
36243;SDS011;22284;49.956;19.816;2022-10-16T13:29:16;9.65;;;4.75;;
36243;SDS011;22284;49.956;19.816;2022-10-16T13:32:20;5.62;;;4.33;;
36243;SDS011;22284;49.956;19.816;2022-10-16T13:35:27;8.00;;;4.67;;
36243;SDS011;22284;49.956;19.816;2022-10-16T13:38:33;8.38;;;5.28;;
36243;SDS011;22284;49.956;19.816;2022-10-16T13:41:36;10.90;;;5.28;;
36243;SDS011;22284;49.956;19.816;2022-10-16T13:44:42;6.72;;;4.87;;
36243;SDS011;22284;49.956;19.816;2022-10-16T13:47:46;9.08;;;5.03;;
36243;SDS011;22284;49.956;19.816;2022-10-16T13:50:57;6.20;;;4.40;;
36243;SDS011;22284;49.956;19.816;2022-10-16T13:54:03;8.08;;;5.12;;
36243;SDS011;22284;49.956;19.816;2022-10-16T13:57:04;9.40;;;4.78;;
36243;SDS011;22284;49.956;19.816;2022-10-16T14:00:20;7.37;;;4.85;;
36243;SDS011;22284;49.956;19.816;2022-10-16T14:03:26;7.70;;;5.00;;
36243;SDS011;22284;49.956;19.816;2022-10-16T14:06:30;7.40;;;4.85;;
36243;SDS011;22284;49.956;19.816;2022-10-16T14:09:32;7.05;;;4.70;;
36243;SDS011;22284;49.956;19.816;2022-10-16T14:12:35;6.62;;;4.67;;
36243;SDS011;22284;49.956;19.816;2022-10-16T14:15:37;9.10;;;5.30;;
36243;SDS011;22284;49.956;19.816;2022-10-16T14:18:39;8.37;;;4.90;;
36243;SDS011;22284;49.956;19.816;2022-10-16T14:21:40;7.80;;;5.12;;
36243;SDS011;22284;49.956;19.816;2022-10-16T14:24:42;9.15;;;5.58;;
36243;SDS011;22284;49.956;19.816;2022-10-16T14:27:43;10.03;;;5.47;;
36243;SDS011;22284;49.956;19.816;2022-10-16T14:30:57;7.90;;;5.30;;
36243;SDS011;22284;49.956;19.816;2022-10-16T14:34:00;7.72;;;5.05;;
36243;SDS011;22284;49.956;19.816;2022-10-16T14:40:29;10.60;;;5.35;;
36243;SDS011;22284;49.956;19.816;2022-10-16T14:43:34;10.08;;;5.50;;
36243;SDS011;22284;49.956;19.816;2022-10-16T14:46:39;9.05;;;5.37;;
36243;SDS011;22284;49.956;19.816;2022-10-16T14:49:43;8.58;;;5.53;;
36243;SDS011;22284;49.956;19.816;2022-10-16T14:52:43;8.80;;;5.45;;
36243;SDS011;22284;49.956;19.816;2022-10-16T14:55:45;8.78;;;5.40;;
36243;SDS011;22284;49.956;19.816;2022-10-16T14:58:46;8.65;;;5.37;;
36243;SDS011;22284;49.956;19.816;2022-10-16T15:01:48;9.18;;;5.35;;
36243;SDS011;22284;49.956;19.816;2022-10-16T15:04:49;8.30;;;5.42;;
36243;SDS011;22284;49.956;19.816;2022-10-16T15:07:50;10.10;;;5.50;;
36243;SDS011;22284;49.956;19.816;2022-10-16T15:10:53;10.25;;;5.58;;
36243;SDS011;22284;49.956;19.816;2022-10-16T15:13:54;9.43;;;5.58;;
36243;SDS011;22284;49.956;19.816;2022-10-16T15:16:55;8.33;;;5.22;;
36243;SDS011;22284;49.956;19.816;2022-10-16T15:19:57;10.75;;;5.95;;
36243;SDS011;22284;49.956;19.816;2022-10-16T15:23:00;11.43;;;6.00;;
36243;SDS011;22284;49.956;19.816;2022-10-16T15:26:07;9.00;;;5.50;;
36243;SDS011;22284;49.956;19.816;2022-10-16T15:29:08;9.50;;;5.97;;
36243;SDS011;22284;49.956;19.816;2022-10-16T15:32:10;10.35;;;5.60;;
36243;SDS011;22284;49.956;19.816;2022-10-16T15:35:11;10.57;;;5.87;;
36243;SDS011;22284;49.956;19.816;2022-10-16T15:38:12;9.85;;;5.92;;
36243;SDS011;22284;49.956;19.816;2022-10-16T15:44:16;11.53;;;6.45;;
36243;SDS011;22284;49.956;19.816;2022-10-16T15:47:18;10.75;;;6.22;;
36243;SDS011;22284;49.956;19.816;2022-10-16T15:50:19;10.15;;;6.08;;
36243;SDS011;22284;49.956;19.816;2022-10-16T15:53:20;13.45;;;6.70;;
36243;SDS011;22284;49.956;19.816;2022-10-16T15:56:22;10.53;;;5.87;;
36243;SDS011;22284;49.956;19.816;2022-10-16T15:59:25;10.40;;;6.05;;
36243;SDS011;22284;49.956;19.816;2022-10-16T16:02:26;10.43;;;6.00;;
36243;SDS011;22284;49.956;19.816;2022-10-16T16:05:27;8.65;;;5.90;;
36243;SDS011;22284;49.956;19.816;2022-10-16T16:08:28;14.18;;;6.30;;
36243;SDS011;22284;49.956;19.816;2022-10-16T16:11:29;12.18;;;6.83;;
36243;SDS011;22284;49.956;19.816;2022-10-16T16:17:33;12.53;;;6.90;;
36243;SDS011;22284;49.956;19.816;2022-10-16T16:20:35;13.48;;;6.97;;
36243;SDS011;22284;49.956;19.816;2022-10-16T16:23:36;12.25;;;6.67;;
36243;SDS011;22284;49.956;19.816;2022-10-16T16:26:37;12.60;;;7.22;;
36243;SDS011;22284;49.956;19.816;2022-10-16T16:29:41;11.55;;;7.25;;
36243;SDS011;22284;49.956;19.816;2022-10-16T16:32:42;13.10;;;7.47;;
36243;SDS011;22284;49.956;19.816;2022-10-16T16:35:44;10.00;;;6.65;;
36243;SDS011;22284;49.956;19.816;2022-10-16T16:38:45;12.15;;;6.70;;
36243;SDS011;22284;49.956;19.816;2022-10-16T16:41:47;13.55;;;6.92;;
36243;SDS011;22284;49.956;19.816;2022-10-16T16:44:48;10.82;;;6.70;;
36243;SDS011;22284;49.956;19.816;2022-10-16T16:47:49;14.07;;;7.30;;
36243;SDS011;22284;49.956;19.816;2022-10-16T16:50:50;16.40;;;9.83;;
36243;SDS011;22284;49.956;19.816;2022-10-16T16:53:52;20.05;;;9.58;;
36243;SDS011;22284;49.956;19.816;2022-10-16T16:56:55;14.33;;;8.18;;
36243;SDS011;22284;49.956;19.816;2022-10-16T16:59:56;15.48;;;8.00;;
36243;SDS011;22284;49.956;19.816;2022-10-16T17:02:57;16.57;;;9.83;;
36243;SDS011;22284;49.956;19.816;2022-10-16T17:05:59;22.22;;;11.63;;
36243;SDS011;22284;49.956;19.816;2022-10-16T17:09:04;22.13;;;12.93;;
36243;SDS011;22284;49.956;19.816;2022-10-16T17:12:06;25.45;;;14.73;;
36243;SDS011;22284;49.956;19.816;2022-10-16T17:15:08;27.07;;;14.63;;
36243;SDS011;22284;49.956;19.816;2022-10-16T17:18:10;24.12;;;13.98;;
36243;SDS011;22284;49.956;19.816;2022-10-16T17:21:10;23.15;;;13.05;;
36243;SDS011;22284;49.956;19.816;2022-10-16T17:24:12;22.10;;;13.57;;
36243;SDS011;22284;49.956;19.816;2022-10-16T17:27:14;25.25;;;14.40;;
36243;SDS011;22284;49.956;19.816;2022-10-16T17:30:14;23.95;;;12.85;;
36243;SDS011;22284;49.956;19.816;2022-10-16T17:33:16;25.75;;;13.60;;
36243;SDS011;22284;49.956;19.816;2022-10-16T17:36:17;22.98;;;14.20;;
36243;SDS011;22284;49.956;19.816;2022-10-16T17:39:20;22.17;;;13.35;;
36243;SDS011;22284;49.956;19.816;2022-10-16T17:42:22;27.25;;;14.07;;
36243;SDS011;22284;49.956;19.816;2022-10-16T17:45:23;27.35;;;15.20;;
36243;SDS011;22284;49.956;19.816;2022-10-16T17:48:24;32.63;;;15.95;;
36243;SDS011;22284;49.956;19.816;2022-10-16T17:51:26;26.15;;;15.48;;
36243;SDS011;22284;49.956;19.816;2022-10-16T17:54:30;31.07;;;17.57;;
36243;SDS011;22284;49.956;19.816;2022-10-16T17:57:31;30.77;;;17.60;;
36243;SDS011;22284;49.956;19.816;2022-10-16T18:00:32;29.67;;;17.27;;
36243;SDS011;22284;49.956;19.816;2022-10-16T18:03:33;36.23;;;18.02;;
36243;SDS011;22284;49.956;19.816;2022-10-16T18:06:35;30.43;;;17.37;;
36243;SDS011;22284;49.956;19.816;2022-10-16T18:09:37;32.88;;;19.30;;
36243;SDS011;22284;49.956;19.816;2022-10-16T18:12:38;33.35;;;19.90;;
36243;SDS011;22284;49.956;19.816;2022-10-16T18:15:40;32.78;;;19.73;;
36243;SDS011;22284;49.956;19.816;2022-10-16T18:18:41;31.57;;;20.57;;
36243;SDS011;22284;49.956;19.816;2022-10-16T18:21:47;35.30;;;20.92;;
36243;SDS011;22284;49.956;19.816;2022-10-16T18:24:51;33.80;;;20.10;;
36243;SDS011;22284;49.956;19.816;2022-10-16T18:27:52;34.80;;;19.70;;
36243;SDS011;22284;49.956;19.816;2022-10-16T18:30:57;32.35;;;19.27;;
36243;SDS011;22284;49.956;19.816;2022-10-16T18:34:01;35.68;;;18.85;;
36243;SDS011;22284;49.956;19.816;2022-10-16T18:37:02;34.25;;;19.37;;
36243;SDS011;22284;49.956;19.816;2022-10-16T18:40:04;33.30;;;17.92;;
36243;SDS011;22284;49.956;19.816;2022-10-16T18:43:05;33.10;;;19.15;;
36243;SDS011;22284;49.956;19.816;2022-10-16T18:46:07;29.70;;;18.30;;
36243;SDS011;22284;49.956;19.816;2022-10-16T18:49:11;30.97;;;19.25;;
36243;SDS011;22284;49.956;19.816;2022-10-16T18:52:12;33.53;;;20.72;;
36243;SDS011;22284;49.956;19.816;2022-10-16T18:55:13;31.80;;;19.30;;
36243;SDS011;22284;49.956;19.816;2022-10-16T18:58:15;30.95;;;18.75;;
36243;SDS011;22284;49.956;19.816;2022-10-16T19:01:17;31.60;;;19.30;;
36243;SDS011;22284;49.956;19.816;2022-10-16T19:04:23;27.58;;;17.55;;
36243;SDS011;22284;49.956;19.816;2022-10-16T19:07:24;27.35;;;17.00;;
36243;SDS011;22284;49.956;19.816;2022-10-16T19:10:26;29.92;;;15.83;;
36243;SDS011;22284;49.956;19.816;2022-10-16T19:13:27;27.98;;;17.15;;
36243;SDS011;22284;49.956;19.816;2022-10-16T19:16:33;30.02;;;16.80;;
36243;SDS011;22284;49.956;19.816;2022-10-16T19:19:35;26.95;;;15.28;;
36243;SDS011;22284;49.956;19.816;2022-10-16T19:22:37;27.27;;;16.13;;
36243;SDS011;22284;49.956;19.816;2022-10-16T19:25:52;22.32;;;13.43;;
36243;SDS011;22284;49.956;19.816;2022-10-16T19:28:54;23.35;;;13.72;;
36243;SDS011;22284;49.956;19.816;2022-10-16T19:31:58;22.32;;;14.30;;